createdAt,value
2022-12-16T00:01:57.239Z,100350.16
2022-12-16T00:04:24.117Z,100351.22
2022-12-16T00:06:50.524Z,100346.06
2022-12-16T00:09:18.120Z,100347.16
2022-12-16T00:11:44.613Z,100348.50
2022-12-16T00:14:10.961Z,100338.69
2022-12-16T00:16:37.363Z,100342.50
2022-12-16T00:19:03.850Z,100336.47
2022-12-16T00:21:30.418Z,100338.41
2022-12-16T00:23:57.370Z,100343.31
2022-12-16T00:26:23.985Z,100342.22
2022-12-16T00:28:50.698Z,100348.78
2022-12-16T00:31:18.643Z,100343.84
2022-12-16T00:33:45.605Z,100344.94
2022-12-16T00:36:12.024Z,100343.84
2022-12-16T00:38:38.589Z,100350.41
2022-12-16T00:41:05.677Z,100348.19
2022-12-16T00:43:32.420Z,100355.56
2022-12-16T00:45:59.447Z,100353.41
2022-12-16T00:48:26.033Z,100361.31
2022-12-16T00:50:55.041Z,100352.84
2022-12-16T00:53:24.552Z,100350.38
2022-12-16T00:55:52.657Z,100351.72
2022-12-16T00:58:20.278Z,100364.81
2022-12-16T01:00:46.789Z,100361.28
2022-12-16T01:03:18.013Z,100356.06
2022-12-16T01:05:47.650Z,100347.66
2022-12-16T01:08:14.013Z,100357.75
2022-12-16T01:10:40.369Z,100352.28
2022-12-16T01:13:07.020Z,100355.25
2022-12-16T01:15:33.564Z,100368.91
2022-12-16T01:17:59.969Z,100368.38
2022-12-16T01:20:26.503Z,100365.09
2022-12-16T01:22:52.856Z,100371.06
2022-12-16T01:25:19.250Z,100369.69
2022-12-16T01:27:45.890Z,100374.59
2022-12-16T01:30:12.808Z,100375.69
2022-12-16T01:32:39.200Z,100378.44
2022-12-16T01:35:18.128Z,100379.53
2022-12-16T01:37:49.976Z,100385.78
2022-12-16T01:40:19.634Z,100381.41
2022-12-16T01:42:46.144Z,100383.31
2022-12-16T01:45:30.232Z,100379.22
2022-12-16T01:48:01.325Z,100383.59
2022-12-16T01:50:30.339Z,100389.31
2022-12-16T01:53:00.072Z,100381.38
2022-12-16T01:55:35.964Z,100392.56
2022-12-16T01:58:11.529Z,100395.56
2022-12-16T02:00:40.279Z,100404.00
2022-12-16T02:03:07.959Z,100401.81
2022-12-16T02:05:40.307Z,100402.34
2022-12-16T02:08:09.557Z,100392.81
2022-12-16T02:10:49.661Z,100397.38
2022-12-16T02:13:30.828Z,100389.75
2022-12-16T02:16:03.497Z,100393.00
2022-12-16T02:19:01.490Z,100393.56
2022-12-16T02:21:33.471Z,100392.47
2022-12-16T02:24:37.791Z,100391.34
2022-12-16T02:27:17.626Z,100398.44
2022-12-16T02:30:16.641Z,100391.34
2022-12-16T02:33:09.256Z,100389.44
2022-12-16T02:35:45.157Z,100401.44
2022-12-16T02:38:30.704Z,100405.50
2022-12-16T02:41:06.680Z,100401.97
2022-12-16T02:43:47.208Z,100399.22
2022-12-16T02:46:13.765Z,100404.41
2022-12-16T02:48:40.074Z,100401.97
2022-12-16T02:51:06.702Z,100404.69
2022-12-16T02:53:36.075Z,100406.59
2022-12-16T02:56:21.028Z,100394.88
2022-12-16T02:58:55.224Z,100405.78
2022-12-16T03:01:42.694Z,100399.78
2022-12-16T03:04:19.721Z,100400.03
2022-12-16T03:06:49.615Z,100408.19
2022-12-16T03:09:29.543Z,100399.47
2022-12-16T03:11:57.719Z,100407.38
2022-12-16T03:14:27.309Z,100397.31
2022-12-16T03:16:53.941Z,100398.94
2022-12-16T03:19:22.626Z,100396.75
2022-12-16T03:21:58.447Z,100403.53
2022-12-16T03:24:25.726Z,100398.09
2022-12-16T03:27:18.725Z,100404.91
2022-12-16T03:30:04.864Z,100395.91
2022-12-16T03:32:51.912Z,100406.25
2022-12-16T03:35:26.895Z,100398.34
2022-12-16T03:37:58.719Z,100405.69
2022-12-16T03:40:28.117Z,100404.06
2022-12-16T03:42:59.391Z,100411.13
2022-12-16T03:45:29.369Z,100413.88
2022-12-16T03:47:58.522Z,100406.25
2022-12-16T03:50:29.546Z,100405.41
2022-12-16T03:52:56.279Z,100409.22
2022-12-16T03:55:22.951Z,100407.31
2022-12-16T03:57:49.856Z,100414.69
2022-12-16T04:00:17.496Z,100414.69
2022-12-16T04:02:44.528Z,100416.59
2022-12-16T04:05:11.022Z,100425.31
2022-12-16T04:07:37.343Z,100422.84
2022-12-16T04:10:05.174Z,100419.56
2022-12-16T04:12:51.177Z,100417.69
2022-12-16T04:15:36.130Z,100420.66
2022-12-16T04:18:21.139Z,100426.09
2022-12-16T04:21:15.399Z,100427.19
2022-12-16T04:24:13.958Z,100423.63
2022-12-16T04:27:00.535Z,100436.16
2022-12-16T04:29:27.503Z,100438.06
2022-12-16T04:31:53.925Z,100440.81
2022-12-16T04:34:27.307Z,100441.88
2022-12-16T04:37:14.888Z,100446.53
2022-12-16T04:39:59.930Z,100441.06
2022-12-16T04:42:45.156Z,100447.34
2022-12-16T04:45:30.322Z,100450.06
2022-12-16T04:48:15.945Z,100454.69
2022-12-16T04:51:01.299Z,100454.69
2022-12-16T04:53:46.512Z,100464.78
2022-12-16T04:56:31.285Z,100465.00
2022-12-16T04:59:17.715Z,100465.28
2022-12-16T05:02:02.876Z,100469.91
2022-12-16T05:04:48.201Z,100473.44
2022-12-16T05:07:37.969Z,100470.19
2022-12-16T05:10:24.722Z,100473.97
2022-12-16T05:13:11.919Z,100473.16
2022-12-16T05:15:57.109Z,100473.41
2022-12-16T05:18:42.319Z,100471.78
2022-12-16T05:21:27.253Z,100477.75
2022-12-16T05:24:12.352Z,100483.69
2022-12-16T05:26:57.188Z,100489.69
2022-12-16T05:29:42.194Z,100491.28
2022-12-16T05:32:27.339Z,100493.44
2022-12-16T05:35:12.311Z,100492.88
2022-12-16T05:37:57.407Z,100496.69
2022-12-16T05:40:42.405Z,100497.75
2022-12-16T05:43:27.194Z,100494.22
2022-12-16T05:46:13.240Z,100510.28
2022-12-16T05:49:12.193Z,100518.47
2022-12-16T05:51:57.070Z,100518.47
2022-12-16T05:54:42.076Z,100519.28
2022-12-16T05:57:27.455Z,100526.63
2022-12-16T06:00:12.499Z,100535.88
2022-12-16T06:02:57.703Z,100532.34
2022-12-16T06:05:42.797Z,100536.69
2022-12-16T06:08:27.558Z,100539.41
2022-12-16T06:11:12.598Z,100544.88
2022-12-16T06:13:57.655Z,100549.78
2022-12-16T06:16:42.803Z,100550.63
2022-12-16T06:19:30.439Z,100558.53
2022-12-16T06:22:15.200Z,100559.88
2022-12-16T06:25:00.231Z,100563.19
2022-12-16T06:27:45.448Z,100562.63
2022-12-16T06:30:30.715Z,100571.06
2022-12-16T06:33:15.517Z,100573.22
2022-12-16T06:36:00.205Z,100578.91
2022-12-16T06:38:45.033Z,100582.72
2022-12-16T06:41:29.677Z,100584.88
2022-12-16T06:44:14.456Z,100585.97
2022-12-16T06:46:59.716Z,100587.03
2022-12-16T06:49:44.810Z,100595.19
2022-12-16T06:52:29.889Z,100606.06
2022-12-16T06:55:14.932Z,100605.25
2022-12-16T06:57:59.985Z,100612.59
2022-12-16T07:00:45.265Z,100616.41
2022-12-16T07:03:35.547Z,100613.97
2022-12-16T07:06:21.124Z,100621.03
2022-12-16T07:09:05.937Z,100621.03
2022-12-16T07:11:50.790Z,100621.03
2022-12-16T07:14:36.931Z,100626.47
2022-12-16T07:17:21.594Z,100626.22
2022-12-16T07:20:06.547Z,100628.13
2022-12-16T07:23:01.005Z,100635.22
2022-12-16T07:25:49.257Z,100639.56
2022-12-16T07:28:36.312Z,100655.34
2022-12-16T07:31:21.540Z,100660.78
2022-12-16T07:34:06.335Z,100668.13
2022-12-16T07:36:50.995Z,100659.16
2022-12-16T07:39:35.787Z,100673.84
2022-12-16T07:42:21.067Z,100677.63
2022-12-16T07:45:05.724Z,100680.59
2022-12-16T07:47:50.706Z,100687.97
2022-12-16T07:50:35.801Z,100692.59
2022-12-16T07:53:20.706Z,100698.84
2022-12-16T07:56:05.857Z,100708.91
2022-12-16T07:58:50.592Z,100711.63
2022-12-16T08:01:35.916Z,100712.19
2022-12-16T08:04:21.092Z,100722.00
2022-12-16T08:07:06.163Z,100716.31
2022-12-16T08:09:50.992Z,100717.47
2022-12-16T08:12:35.992Z,100726.19
2022-12-16T08:15:20.705Z,100724.34
2022-12-16T08:18:10.078Z,100732.84
2022-12-16T08:20:55.747Z,100738.91
2022-12-16T08:23:41.202Z,100738.13
2022-12-16T08:26:26.640Z,100741.78
2022-12-16T08:29:35.160Z,100740.75
2022-12-16T08:32:16.812Z,100743.53
2022-12-16T08:35:01.561Z,100744.13
2022-12-16T08:37:46.499Z,100747.72
2022-12-16T08:40:36.040Z,100759.53
2022-12-16T08:43:21.495Z,100748.69
2022-12-16T08:46:06.366Z,100754.19
2022-12-16T08:48:51.514Z,100757.28
2022-12-16T08:51:36.468Z,100760.88
2022-12-16T08:54:21.344Z,100758.75
2022-12-16T08:57:07.419Z,100770.28
2022-12-16T08:59:52.313Z,100775.78
2022-12-16T09:02:37.565Z,100771.19
2022-12-16T09:05:22.973Z,100778.31
2022-12-16T09:08:07.902Z,100774.53
2022-12-16T09:10:52.990Z,100774.34
2022-12-16T09:13:40.320Z,100776.56
2022-12-16T09:16:25.819Z,100779.66
2022-12-16T09:19:10.991Z,100785.72
2022-12-16T09:21:55.767Z,100786.88
2022-12-16T09:24:40.968Z,100786.38
2022-12-16T09:27:25.955Z,100791.06
2022-12-16T09:30:11.046Z,100803.16
2022-12-16T09:33:03.008Z,100801.56
2022-12-16T09:35:48.383Z,100802.72
2022-12-16T09:38:33.935Z,100811.78
2022-12-16T09:41:44.806Z,100812.38
2022-12-16T09:44:38.613Z,100809.13
2022-12-16T09:47:29.610Z,100818.22
2022-12-16T09:50:14.948Z,100810.56
2022-12-16T09:53:05.215Z,100810.88
2022-12-16T09:55:55.496Z,100815.84
2022-12-16T09:58:43.603Z,100820.50
2022-12-16T10:01:30.950Z,100828.75
2022-12-16T10:04:17.914Z,100833.13
2022-12-16T10:07:10.093Z,100833.97
2022-12-16T10:10:23.206Z,100837.28
2022-12-16T10:13:38.692Z,100837.53
2022-12-16T10:16:26.722Z,100838.66
2022-12-16T10:20:10.243Z,100838.94
2022-12-16T10:23:09.210Z,100834.28
2022-12-16T10:26:01.333Z,100841.44
2022-12-16T10:29:03.579Z,100838.69
2022-12-16T10:31:49.160Z,100844.69
2022-12-16T10:34:38.839Z,100847.19
2022-12-16T10:37:24.547Z,100849.34
2022-12-16T10:40:19.609Z,100853.72
2022-12-16T10:43:15.785Z,100856.72
2022-12-16T10:46:09.296Z,100851.22
2022-12-16T10:48:56.492Z,100856.97
2022-12-16T10:51:46.103Z,100850.13
2022-12-16T10:54:40.012Z,100857.75
2022-12-16T10:57:45.950Z,100857.19
2022-12-16T11:00:40.169Z,100863.75
2022-12-16T11:03:40.553Z,100864.28
2022-12-16T11:06:27.343Z,100862.56
2022-12-16T11:09:12.668Z,100854.59
2022-12-16T11:11:57.795Z,100852.38
2022-12-16T11:15:05.405Z,100856.44
2022-12-16T11:17:49.586Z,100852.81
2022-12-16T11:20:42.130Z,100855.28
2022-12-16T11:23:41.473Z,100858.50
2022-12-16T11:26:37.617Z,100847.19
2022-12-16T11:29:23.242Z,100843.03
2022-12-16T11:32:16.007Z,100852.38
2022-12-16T11:35:04.786Z,100856.41
2022-12-16T11:37:50.805Z,100861.59
2022-12-16T11:40:37.428Z,100857.69
2022-12-16T11:43:24.172Z,100862.34
2022-12-16T11:46:13.864Z,100856.81
2022-12-16T11:49:11.416Z,100863.06
2022-12-16T11:52:21.229Z,100862.22
2022-12-16T11:55:35.776Z,100871.22
2022-12-16T11:58:41.798Z,100863.78
2022-12-16T12:01:43.165Z,100870.31
2022-12-16T12:04:30.785Z,100870.28
2022-12-16T12:07:32.188Z,100871.63
2022-12-16T12:10:33.804Z,100862.81
2022-12-16T12:13:23.338Z,100863.59
2022-12-16T12:16:19.927Z,100872.09
2022-12-16T12:19:20.238Z,100870.38
2022-12-16T12:22:41.089Z,100868.69
2022-12-16T12:25:40.380Z,100878.81
2022-12-16T12:28:40.898Z,100874.69
2022-12-16T12:31:48.464Z,100876.56
2022-12-16T12:34:39.657Z,100882.84
2022-12-16T12:37:28.375Z,100881.16
2022-12-16T12:40:32.208Z,100875.84
2022-12-16T12:43:49.165Z,100879.97
2022-12-16T12:47:28.720Z,100880.72
2022-12-16T12:50:25.863Z,100877.09
2022-12-16T12:53:28.075Z,100878.19
2022-12-16T12:56:32.476Z,100868.81
2022-12-16T12:59:23.092Z,100874.56
2022-12-16T13:02:11.541Z,100873.97
2022-12-16T13:04:58.478Z,100876.13
2022-12-16T13:07:43.350Z,100875.56
2022-12-16T13:10:43.775Z,100872.50
2022-12-16T13:13:35.733Z,100870.81
2022-12-16T13:16:22.795Z,100881.75
2022-12-16T13:19:58.872Z,100879.00
2022-12-16T13:22:55.771Z,100879.44
2022-12-16T13:25:50.032Z,100887.44
2022-12-16T13:29:15.146Z,100890.69
2022-12-16T13:32:22.771Z,100895.31
2022-12-16T13:35:18.938Z,100887.31
2022-12-16T13:38:15.881Z,100898.00
2022-12-16T13:41:08.997Z,100901.31
2022-12-16T13:44:19.486Z,100910.06
2022-12-16T13:47:10.299Z,100908.66
2022-12-16T13:49:55.429Z,100916.88
2022-12-16T13:52:58.855Z,100919.31
2022-12-16T13:55:47.299Z,100930.56
2022-12-16T13:58:56.717Z,100934.44
2022-12-16T14:01:56.747Z,100935.84
2022-12-16T14:05:03.468Z,100950.75
2022-12-16T14:07:52.942Z,100950.75
2022-12-16T14:10:52.902Z,100948.56
2022-12-16T14:14:00.778Z,100953.84
2022-12-16T14:17:07.541Z,100964.34
2022-12-16T14:19:57.100Z,100966.28
2022-12-16T14:23:01.176Z,100975.13
2022-12-16T14:25:46.286Z,100975.94
2022-12-16T14:28:58.850Z,100980.38
2022-12-16T14:31:52.710Z,100983.69
2022-12-16T14:34:53.876Z,100983.44
2022-12-16T14:37:42.653Z,100980.97
2022-12-16T14:40:40.391Z,100987.63
2022-12-16T14:43:44.586Z,100993.75
2022-12-16T14:46:50.077Z,100985.81
2022-12-16T14:49:44.520Z,100994.66
2022-12-16T14:52:39.768Z,100998.59
2022-12-16T14:55:40.239Z,100997.53
2022-12-16T14:58:29.867Z,100994.84
2022-12-16T15:01:19.449Z,101003.38
2022-12-16T15:04:09.145Z,101004.84
2022-12-16T15:07:00.077Z,101011.47
2022-12-16T15:09:55.870Z,101015.69
2022-12-16T15:12:44.872Z,101010.78
2022-12-16T15:15:50.993Z,101026.81
2022-12-16T15:18:40.789Z,101030.97
2022-12-16T15:21:26.693Z,101035.16
2022-12-16T15:24:11.883Z,101035.47
2022-12-16T15:26:57.058Z,101041.28
2022-12-16T15:29:53.038Z,101055.91
2022-12-16T15:32:56.539Z,101051.56
2022-12-16T15:35:44.833Z,101059.78
2022-12-16T15:38:52.403Z,101062.34
2022-12-16T15:41:52.176Z,101074.16
2022-12-16T15:44:39.581Z,101073.91
2022-12-16T15:47:38.108Z,101079.72
2022-12-16T15:50:24.389Z,101089.59
2022-12-16T15:53:09.541Z,101086.06
2022-12-16T15:56:05.026Z,101091.00
2022-12-16T15:58:53.511Z,101092.94
2022-12-16T16:01:40.426Z,101094.31
2022-12-16T16:04:46.636Z,101099.81
2022-12-16T16:07:36.185Z,101096.81
2022-12-16T16:10:32.962Z,101108.06
2022-12-16T16:13:18.121Z,101106.16
2022-12-16T16:16:03.676Z,101109.72
2022-12-16T16:18:49.232Z,101112.47
2022-12-16T16:21:34.390Z,101117.72
2022-12-16T16:24:19.398Z,101115.78
2022-12-16T16:27:04.727Z,101121.00
2022-12-16T16:29:49.873Z,101121.81
2022-12-16T16:32:35.066Z,101123.47
2022-12-16T16:35:20.301Z,101127.84
2022-12-16T16:38:07.073Z,101134.72
2022-12-16T16:41:02.472Z,101131.16
2022-12-16T16:43:47.904Z,101129.78
2022-12-16T16:46:39.374Z,101141.56
2022-12-16T16:49:29.027Z,101144.00
2022-12-16T16:52:13.996Z,101151.69
2022-12-16T16:54:59.005Z,101149.50
2022-12-16T16:57:45.994Z,101154.44
2022-12-16T17:00:31.353Z,101154.97
2022-12-16T17:03:16.384Z,101154.44
2022-12-16T17:06:01.582Z,101166.75
2022-12-16T17:08:46.713Z,101163.47
2022-12-16T17:11:40.848Z,101165.38
2022-12-16T17:14:31.675Z,101167.81
2022-12-16T17:17:16.577Z,101168.94
2022-12-16T17:20:01.932Z,101179.88
2022-12-16T17:22:47.073Z,101191.38
2022-12-16T17:25:32.562Z,101192.16
2022-12-16T17:28:18.311Z,101198.22
2022-12-16T17:31:03.374Z,101201.75
2022-12-16T17:33:48.353Z,101214.88
2022-12-16T17:36:35.953Z,101218.16
2022-12-16T17:39:22.430Z,101214.31
2022-12-16T17:42:07.621Z,101221.13
2022-12-16T17:44:52.726Z,101212.38
2022-12-16T17:47:38.274Z,101231.78
2022-12-16T17:50:24.291Z,101226.03
2022-12-16T17:53:14.246Z,101221.91
2022-12-16T17:55:59.171Z,101235.06
2022-12-16T17:58:52.287Z,101235.84
2022-12-16T18:01:37.949Z,101238.84
2022-12-16T18:04:23.530Z,101249.25
2022-12-16T18:07:09.317Z,101248.94
2022-12-16T18:09:54.333Z,101259.34
2022-12-16T18:12:40.260Z,101261.78
2022-12-16T18:15:25.505Z,101265.88
2022-12-16T18:18:10.316Z,101266.66
2022-12-16T18:20:55.535Z,101266.09
2022-12-16T18:23:40.832Z,101270.19
2022-12-16T18:26:27.015Z,101269.63
2022-12-16T18:29:11.794Z,101269.88
2022-12-16T18:31:56.513Z,101276.69
2022-12-16T18:34:41.511Z,101272.03
2022-12-16T18:37:29.603Z,101284.31
2022-12-16T18:40:14.330Z,101286.75
2022-12-16T18:42:59.060Z,101292.22
2022-12-16T18:45:44.040Z,101294.91
2022-12-16T18:48:29.247Z,101295.19
2022-12-16T18:51:16.495Z,101295.69
2022-12-16T18:54:01.612Z,101302.53
2022-12-16T18:56:46.844Z,101301.94
2022-12-16T18:59:32.165Z,101303.31
2022-12-16T19:02:17.344Z,101310.94
2022-12-16T19:05:02.359Z,101313.13
2022-12-16T19:07:46.970Z,101314.22
2022-12-16T19:10:31.778Z,101314.44
2022-12-16T19:13:17.504Z,101323.75
2022-12-16T19:16:12.292Z,101319.63
2022-12-16T19:18:57.140Z,101315.81
2022-12-16T19:21:43.664Z,101324.53
2022-12-16T19:24:30.587Z,101322.31
2022-12-16T19:27:15.692Z,101330.75
2022-12-16T19:30:00.711Z,101336.75
2022-12-16T19:32:45.948Z,101332.34
2022-12-16T19:35:31.139Z,101344.38
2022-12-16T19:38:16.287Z,101343.00
2022-12-16T19:41:11.959Z,101347.59
2022-12-16T19:44:01.890Z,101349.47
2022-12-16T19:46:50.576Z,101342.63
2022-12-16T19:49:40.779Z,101349.44
2022-12-16T19:52:28.873Z,101348.03
2022-12-16T19:55:17.194Z,101350.19
2022-12-16T19:58:02.658Z,101360.56
2022-12-16T20:00:47.735Z,101367.13
2022-12-16T20:03:36.687Z,101369.53
2022-12-16T20:06:24.115Z,101370.03
2022-12-16T20:09:10.052Z,101374.13
2022-12-16T20:11:55.573Z,101365.84
2022-12-16T20:14:40.988Z,101374.31
2022-12-16T20:17:26.667Z,101366.34
2022-12-16T20:20:11.368Z,101381.38
2022-12-16T20:22:56.548Z,101378.06
2022-12-16T20:25:41.176Z,101378.31
2022-12-16T20:28:26.258Z,101375.84
2022-12-16T20:31:11.265Z,101374.16
2022-12-16T20:34:12.721Z,101372.78
2022-12-16T20:36:57.929Z,101373.88
2022-12-16T20:39:44.670Z,101377.91
2022-12-16T20:42:32.790Z,101382.00
2022-12-16T20:45:17.838Z,101388.22
2022-12-16T20:48:02.818Z,101391.69
2022-12-16T20:50:47.802Z,101399.31
2022-12-16T20:53:32.902Z,101405.03
2022-12-16T20:56:21.685Z,101411.81
2022-12-16T20:59:07.931Z,101408.25
2022-12-16T21:02:21.597Z,101420.28
2022-12-16T21:04:59.869Z,101419.72
2022-12-16T21:07:44.669Z,101424.56
2022-12-16T21:10:29.664Z,101427.56
2022-12-16T21:13:14.355Z,101423.41
2022-12-16T21:15:59.263Z,101429.97
2022-12-16T21:18:44.383Z,101438.16
2022-12-16T21:21:29.563Z,101430.72
2022-12-16T21:24:14.664Z,101439.16
2022-12-16T21:26:59.418Z,101440.72
2022-12-16T21:29:44.262Z,101449.19
2022-12-16T21:32:29.417Z,101446.47
2022-12-16T21:35:14.471Z,101459.03
2022-12-16T21:37:59.502Z,101462.34
2022-12-16T21:40:44.418Z,101463.75
2022-12-16T21:43:29.437Z,101475.03
2022-12-16T21:46:29.147Z,101480.78
2022-12-16T21:49:14.139Z,101482.22
2022-12-16T21:51:59.112Z,101488.03
2022-12-16T21:54:43.903Z,101491.06
2022-12-16T21:57:30.711Z,101497.13
2022-12-16T22:00:15.887Z,101498.78
2022-12-16T22:03:00.918Z,101505.88
2022-12-16T22:05:50.168Z,101502.09
2022-12-16T22:08:35.236Z,101499.38
2022-12-16T22:11:27.351Z,101504.84
2022-12-16T22:14:12.547Z,101505.66
2022-12-16T22:16:57.652Z,101507.56
2022-12-16T22:19:42.361Z,101515.78
2022-12-16T22:22:27.276Z,101513.25
2022-12-16T22:25:14.524Z,101511.63
2022-12-16T22:27:59.740Z,101523.38
2022-12-16T22:30:44.811Z,101523.09
2022-12-16T22:33:30.476Z,101526.69
2022-12-16T22:36:26.904Z,101533.81
2022-12-16T22:39:11.662Z,101544.22
2022-12-16T22:41:56.452Z,101537.72
2022-12-16T22:44:41.260Z,101542.09
2022-12-16T22:47:26.217Z,101547.56
2022-12-16T22:50:11.025Z,101544.56
2022-12-16T22:52:56.323Z,101558.84
2022-12-16T22:55:41.402Z,101556.09
2022-12-16T22:58:27.875Z,101554.41
2022-12-16T23:01:12.927Z,101555.25
2022-12-16T23:03:58.005Z,101570.59
2022-12-16T23:06:43.002Z,101563.44
2022-12-16T23:09:27.855Z,101565.34
2022-12-16T23:12:13.136Z,101572.72
2022-12-16T23:14:58.293Z,101570.25
2022-12-16T23:17:43.692Z,101577.03
2022-12-16T23:20:29.127Z,101579.19
2022-12-16T23:23:14.831Z,101573.97
2022-12-16T23:25:59.525Z,101568.53
2022-12-16T23:28:44.319Z,101572.91
2022-12-16T23:31:29.149Z,101572.38
2022-12-16T23:34:14.082Z,101582.84
2022-12-16T23:36:58.879Z,101572.72
2022-12-16T23:39:43.630Z,101573.56
2022-12-16T23:42:28.850Z,101570.81
2022-12-16T23:45:14.049Z,101578.47
2022-12-16T23:47:59.027Z,101576.81
2022-12-16T23:50:44.147Z,101576.53
2022-12-16T23:53:30.341Z,101575.47
2022-12-16T23:56:17.399Z,101583.44
2022-12-16T23:59:03.161Z,101582.66
